createdAt,value
2019-02-16T00:02:01.463Z,99.90
2019-02-16T00:04:40.143Z,99.90
2019-02-16T00:07:11.321Z,99.90
2019-02-16T00:09:41.727Z,99.90
2019-02-16T00:12:11.997Z,99.90
2019-02-16T00:14:42.418Z,99.90
2019-02-16T00:17:12.798Z,99.90
2019-02-16T00:19:43.212Z,99.90
2019-02-16T00:22:13.561Z,99.90
2019-02-16T00:24:43.915Z,99.90
2019-02-16T00:27:14.225Z,99.90
2019-02-16T00:29:44.487Z,99.90
2019-02-16T00:32:18.446Z,99.90
2019-02-16T00:34:48.908Z,99.90
2019-02-16T00:37:19.332Z,99.90
2019-02-16T00:39:49.721Z,99.90
2019-02-16T00:42:20.093Z,99.90
2019-02-16T00:44:50.424Z,99.90
2019-02-16T00:47:20.786Z,99.90
2019-02-16T00:49:51.146Z,99.90
2019-02-16T00:52:21.556Z,99.90
2019-02-16T00:54:51.839Z,99.90
2019-02-16T00:57:22.289Z,99.90
2019-02-16T00:59:55.645Z,99.90
2019-02-16T01:02:25.936Z,99.90
2019-02-16T01:04:56.229Z,99.90
2019-02-16T01:07:26.668Z,99.90
2019-02-16T01:09:57.041Z,99.90
2019-02-16T01:12:27.447Z,99.90
2019-02-16T01:14:57.681Z,99.90
2019-02-16T01:17:28.143Z,99.90
2019-02-16T01:19:58.556Z,99.90
2019-02-16T01:22:28.898Z,99.90
2019-02-16T01:24:59.249Z,99.90
2019-02-16T01:27:29.770Z,99.90
2019-02-16T01:30:00.311Z,99.90
2019-02-16T01:32:30.800Z,99.90
2019-02-16T01:35:01.121Z,99.90
2019-02-16T01:37:31.448Z,99.90
2019-02-16T01:40:01.745Z,99.90
2019-02-16T01:42:36.257Z,99.90
2019-02-16T01:45:08.352Z,99.90
2019-02-16T01:47:38.711Z,99.90
2019-02-16T01:50:09.981Z,99.90
2019-02-16T01:52:41.823Z,99.90
2019-02-16T01:55:12.136Z,99.90
2019-02-16T01:57:42.513Z,99.90
2019-02-16T02:00:12.842Z,99.90
2019-02-16T02:02:43.157Z,99.90
2019-02-16T02:05:13.658Z,99.90
2019-02-16T02:07:44.033Z,99.90
2019-02-16T02:10:14.417Z,99.90
2019-02-16T02:12:44.823Z,99.90
2019-02-16T02:15:15.124Z,99.90
2019-02-16T02:17:45.579Z,99.90
2019-02-16T02:20:15.934Z,99.90
2019-02-16T02:22:46.357Z,99.90
2019-02-16T02:25:16.704Z,99.90
2019-02-16T02:27:47.107Z,99.90
2019-02-16T02:30:17.528Z,99.90
2019-02-16T02:32:47.978Z,99.90
2019-02-16T02:35:18.308Z,99.90
2019-02-16T02:37:48.695Z,99.90
2019-02-16T02:40:20.163Z,99.90
2019-02-16T02:42:54.277Z,99.90
2019-02-16T02:45:24.627Z,99.90
2019-02-16T02:47:54.903Z,99.90
2019-02-16T02:50:25.323Z,99.90
2019-02-16T02:52:56.679Z,99.90
2019-02-16T02:55:27.239Z,99.90
2019-02-16T02:57:57.597Z,99.90
2019-02-16T03:00:28.139Z,99.90
2019-02-16T03:02:58.565Z,99.90
2019-02-16T03:05:29.225Z,99.90
2019-02-16T03:07:59.736Z,99.90
2019-02-16T03:10:30.158Z,99.90
2019-02-16T03:13:01.746Z,99.90
2019-02-16T03:15:32.213Z,99.90
2019-02-16T03:18:02.630Z,99.90
2019-02-16T03:20:32.998Z,99.90
2019-02-16T03:23:23.484Z,99.90
2019-02-16T03:26:44.226Z,99.90
2019-02-16T03:29:25.973Z,99.90
2019-02-16T03:32:37.087Z,99.90
2019-02-16T03:35:34.345Z,99.90
2019-02-16T03:38:32.789Z,99.90
2019-02-16T03:41:03.119Z,99.90
2019-02-16T03:43:33.503Z,99.90
2019-02-16T03:46:03.889Z,99.90
2019-02-16T03:48:34.238Z,99.90
2019-02-16T03:51:04.535Z,99.90
2019-02-16T03:53:34.958Z,99.90
2019-02-16T03:56:05.393Z,99.90
2019-02-16T03:58:35.668Z,99.90
2019-02-16T04:01:05.947Z,99.90
2019-02-16T04:03:36.280Z,99.90
2019-02-16T04:06:06.644Z,99.90
2019-02-16T04:08:36.958Z,99.90
2019-02-16T04:11:07.273Z,99.90
2019-02-16T04:13:37.917Z,99.90
2019-02-16T04:16:08.222Z,99.90
2019-02-16T04:18:38.559Z,99.90
2019-02-16T04:21:08.902Z,99.90
2019-02-16T04:23:39.335Z,99.90
2019-02-16T04:26:10.375Z,99.90
2019-02-16T04:28:40.668Z,99.90
2019-02-16T04:31:11.005Z,99.90
2019-02-16T04:33:41.314Z,99.90
2019-02-16T04:36:11.704Z,99.90
2019-02-16T04:38:41.962Z,99.90
2019-02-16T04:41:12.229Z,99.90
2019-02-16T04:43:42.590Z,99.90
2019-02-16T04:46:12.970Z,99.90
2019-02-16T04:48:43.298Z,99.90
2019-02-16T04:51:13.649Z,99.90
2019-02-16T04:53:44.019Z,99.90
2019-02-16T04:56:14.333Z,99.90
2019-02-16T04:58:44.848Z,99.90
2019-02-16T05:01:15.231Z,99.90
2019-02-16T05:03:45.549Z,99.90
2019-02-16T05:06:15.860Z,99.90
2019-02-16T05:08:46.126Z,99.90
2019-02-16T05:11:16.499Z,99.90
2019-02-16T05:13:47.108Z,99.90
2019-02-16T05:16:17.617Z,99.90
2019-02-16T05:18:47.909Z,99.90
2019-02-16T05:21:18.212Z,99.90
2019-02-16T05:23:48.515Z,99.90
2019-02-16T05:26:18.857Z,99.90
2019-02-16T05:28:49.215Z,99.90
2019-02-16T05:31:19.593Z,99.90
2019-02-16T05:33:49.924Z,99.90
2019-02-16T05:36:20.259Z,99.90
2019-02-16T05:38:50.624Z,99.90
2019-02-16T05:41:21.033Z,99.90
2019-02-16T05:43:51.415Z,99.90
2019-02-16T05:46:21.919Z,99.90
2019-02-16T05:48:52.298Z,99.90
2019-02-16T05:51:22.602Z,99.90
2019-02-16T05:53:52.905Z,99.90
2019-02-16T05:56:23.261Z,99.90
2019-02-16T05:58:53.611Z,99.90
2019-02-16T06:01:23.989Z,99.90
2019-02-16T06:03:54.352Z,99.90
2019-02-16T06:06:24.818Z,99.90
2019-02-16T06:08:55.251Z,99.90
2019-02-16T06:11:25.820Z,99.90
2019-02-16T06:13:56.464Z,99.90
2019-02-16T06:16:26.896Z,99.90
2019-02-16T06:18:57.312Z,99.90
2019-02-16T06:21:27.790Z,99.90
2019-02-16T06:23:58.244Z,99.90
2019-02-16T06:26:28.496Z,99.90
2019-02-16T06:28:58.819Z,99.90
2019-02-16T06:31:29.148Z,99.90
2019-02-16T06:33:59.546Z,99.90
2019-02-16T06:36:40.756Z,99.90
2019-02-16T06:39:11.215Z,99.90
2019-02-16T06:41:41.600Z,99.90
2019-02-16T06:44:11.946Z,99.90
2019-02-16T06:46:43.428Z,99.90
2019-02-16T06:49:13.784Z,99.90
2019-02-16T06:51:44.094Z,99.90
2019-02-16T06:54:14.485Z,99.90
2019-02-16T06:57:07.739Z,99.90
2019-02-16T06:59:38.044Z,99.90
2019-02-16T07:02:08.350Z,99.90
2019-02-16T07:04:38.716Z,99.90
2019-02-16T07:07:09.096Z,99.90
2019-02-16T07:09:39.520Z,99.90
2019-02-16T07:12:09.954Z,99.90
2019-02-16T07:14:40.298Z,99.90
2019-02-16T07:17:30.317Z,99.90
2019-02-16T07:20:01.001Z,99.90
2019-02-16T07:22:31.305Z,99.90
2019-02-16T07:25:01.763Z,99.90
2019-02-16T07:27:32.119Z,99.90
2019-02-16T07:30:02.532Z,99.90
2019-02-16T07:32:32.852Z,99.90
2019-02-16T07:35:03.232Z,99.90
2019-02-16T07:37:33.742Z,99.90
2019-02-16T07:40:04.900Z,99.90
2019-02-16T07:42:53.007Z,99.90
2019-02-16T07:45:42.709Z,99.90
2019-02-16T07:48:21.880Z,99.90
2019-02-16T07:51:13.961Z,99.90
2019-02-16T07:53:54.212Z,99.90
2019-02-16T07:56:31.261Z,99.90
2019-02-16T07:59:29.895Z,99.90
2019-02-16T08:02:08.216Z,99.90
2019-02-16T08:04:55.026Z,99.90
2019-02-16T08:07:33.874Z,99.90
2019-02-16T08:10:26.529Z,99.90
2019-02-16T08:13:28.281Z,99.90
2019-02-16T08:16:11.835Z,99.90
2019-02-16T08:18:51.106Z,99.90
2019-02-16T08:21:43.231Z,99.90
2019-02-16T08:24:44.761Z,99.90
2019-02-16T08:27:23.596Z,99.90
2019-02-16T08:30:10.351Z,99.90
2019-02-16T08:32:58.241Z,99.90
2019-02-16T08:35:47.614Z,99.90
2019-02-16T08:38:26.906Z,99.90
2019-02-16T08:41:15.326Z,99.90
2019-02-16T08:44:03.371Z,99.90
2019-02-16T08:46:58.602Z,99.90
2019-02-16T08:49:48.007Z,99.90
2019-02-16T08:52:37.659Z,99.90
2019-02-16T08:55:47.062Z,99.90
2019-02-16T08:58:51.532Z,99.90
2019-02-16T09:01:39.668Z,99.90
2019-02-16T09:04:27.790Z,99.90
2019-02-16T09:07:20.244Z,99.90
2019-02-16T09:10:15.570Z,99.90
2019-02-16T09:12:53.531Z,99.90
2019-02-16T09:15:52.318Z,99.90
2019-02-16T09:18:36.998Z,99.90
2019-02-16T09:21:29.324Z,99.90
2019-02-16T09:24:10.766Z,99.90
2019-02-16T09:26:59.292Z,99.90
2019-02-16T09:29:40.344Z,99.90
2019-02-16T09:32:35.415Z,99.90
2019-02-16T09:35:25.730Z,99.90
2019-02-16T09:38:13.761Z,99.90
2019-02-16T09:40:56.561Z,99.90
2019-02-16T09:43:54.907Z,99.90
2019-02-16T09:46:50.722Z,99.90
2019-02-16T09:49:46.004Z,99.90
2019-02-16T09:52:41.607Z,99.90
2019-02-16T09:55:31.033Z,99.90
2019-02-16T10:01:24.166Z,99.90
2019-02-16T10:04:04.877Z,99.90
2019-02-16T10:06:57.092Z,99.90
2019-02-16T10:09:44.931Z,99.90
2019-02-16T10:12:35.272Z,99.90
2019-02-16T10:15:28.516Z,99.90
2019-02-16T10:18:18.012Z,99.90
2019-02-16T10:20:58.752Z,99.90
2019-02-16T10:23:46.981Z,99.90
2019-02-16T10:26:34.932Z,99.90
2019-02-16T10:29:26.399Z,99.90
2019-02-16T10:32:08.222Z,99.90
2019-02-16T10:35:00.581Z,99.70
2019-02-16T10:37:57.052Z,98.50
2019-02-16T10:40:49.072Z,99.10
2019-02-16T10:44:09.034Z,98.10
2019-02-16T10:46:59.586Z,97.60
2019-02-16T10:49:47.721Z,96.60
2019-02-16T10:52:30.968Z,97.30
2019-02-16T10:55:38.905Z,93.50
2019-02-16T10:58:26.007Z,94.00
2019-02-16T11:01:15.646Z,91.30
2019-02-16T11:04:05.122Z,91.20
2019-02-16T11:06:40.492Z,90.60
2019-02-16T11:09:21.293Z,90.70
2019-02-16T11:12:09.441Z,89.80
2019-02-16T11:15:04.822Z,87.10
2019-02-16T11:18:03.884Z,85.40
2019-02-16T11:20:52.301Z,86.50
2019-02-16T11:23:54.145Z,83.40
2019-02-16T11:26:35.717Z,84.10
2019-02-16T11:29:24.007Z,84.00
2019-02-16T11:32:16.256Z,80.80
2019-02-16T11:34:57.243Z,82.90
2019-02-16T11:37:52.662Z,85.20
2019-02-16T11:40:41.783Z,85.00
2019-02-16T11:43:46.592Z,87.20
2019-02-16T11:46:34.527Z,90.00
2019-02-16T11:49:24.275Z,88.90
2019-02-16T11:52:06.471Z,88.10
2019-02-16T11:55:01.741Z,87.90
2019-02-16T11:57:52.253Z,87.40
2019-02-16T12:00:40.281Z,88.10
2019-02-16T12:03:25.536Z,91.20
2019-02-16T12:06:07.067Z,88.80
2019-02-16T12:09:05.162Z,89.30
2019-02-16T12:11:54.482Z,85.30
2019-02-16T12:14:49.974Z,88.30
2019-02-16T12:17:37.818Z,88.20
2019-02-16T12:20:33.410Z,89.60
2019-02-16T12:23:13.013Z,87.90
2019-02-16T12:26:15.212Z,85.80
2019-02-16T12:29:03.259Z,85.00
2019-02-16T12:32:02.106Z,85.60
2019-02-16T12:34:50.286Z,87.10
2019-02-16T12:37:52.123Z,88.10
2019-02-16T12:40:41.556Z,79.60
2019-02-16T12:43:29.184Z,82.70
2019-02-16T12:46:21.771Z,83.50
2019-02-16T12:49:14.528Z,87.90
2019-02-16T12:52:10.049Z,87.10
2019-02-16T12:54:53.003Z,81.90
2019-02-16T12:57:32.134Z,81.30
2019-02-16T13:00:36.841Z,74.80
2019-02-16T13:03:35.639Z,71.90
2019-02-16T13:06:18.831Z,75.30
2019-02-16T13:09:04.627Z,75.10
2019-02-16T13:11:52.812Z,68.40
2019-02-16T13:14:30.514Z,64.80
2019-02-16T13:17:07.113Z,62.90
2019-02-16T13:20:02.941Z,62.90
2019-02-16T13:22:51.335Z,66.20
2019-02-16T13:25:47.092Z,67.30
2019-02-16T13:28:39.908Z,66.90
2019-02-16T13:31:32.918Z,66.30
2019-02-16T13:34:37.617Z,67.80
2019-02-16T13:37:25.048Z,61.10
2019-02-16T13:40:14.538Z,63.00
2019-02-16T13:42:59.393Z,64.20
2019-02-16T13:46:04.206Z,62.20
2019-02-16T13:48:56.878Z,60.00
2019-02-16T13:51:40.227Z,59.90
2019-02-16T13:54:25.158Z,57.70
2019-02-16T13:57:13.491Z,58.50
2019-02-16T14:00:00.840Z,58.10
2019-02-16T14:02:42.845Z,58.90
2019-02-16T14:05:32.363Z,59.50
2019-02-16T14:08:20.583Z,61.00
2019-02-16T14:11:14.383Z,58.80
2019-02-16T14:13:55.743Z,58.00
2019-02-16T14:16:44.258Z,58.30
2019-02-16T14:19:14.751Z,60.30
2019-02-16T14:21:45.086Z,61.50
2019-02-16T14:50:01.066Z,61.90
2019-02-16T14:52:31.798Z,56.60
2019-02-16T14:55:02.199Z,57.10
2019-02-16T14:57:32.606Z,54.60
2019-02-16T15:00:03.357Z,57.30
2019-02-16T15:02:34.061Z,55.60
2019-02-16T15:05:04.471Z,54.60
2019-02-16T15:07:35.163Z,56.20
2019-02-16T15:10:06.254Z,55.30
2019-02-16T15:12:40.036Z,56.10
2019-02-16T15:15:15.169Z,56.80
2019-02-16T15:17:48.919Z,57.80
2019-02-16T15:20:19.657Z,58.80
2019-02-16T15:22:50.324Z,58.70
2019-02-16T15:25:20.908Z,59.20
2019-02-16T15:27:51.339Z,58.80
2019-02-16T15:30:22.033Z,62.90
2019-02-16T15:32:52.727Z,62.50
2019-02-16T15:35:23.709Z,64.40
2019-02-16T15:37:55.316Z,65.10
2019-02-16T15:40:26.151Z,66.20
2019-02-16T15:42:57.139Z,67.30
2019-02-16T15:45:27.741Z,68.70
2019-02-16T15:47:58.493Z,74.50
2019-02-16T15:50:29.458Z,75.30
2019-02-16T15:52:59.957Z,76.30
2019-02-16T15:55:30.543Z,79.50
2019-02-16T15:58:01.440Z,79.40
2019-02-16T16:00:32.144Z,83.50
2019-02-16T16:03:02.752Z,86.00
2019-02-16T16:05:33.534Z,91.10
2019-02-16T16:08:32.503Z,90.60
2019-02-16T16:11:18.867Z,91.00
2019-02-16T16:14:02.000Z,91.80
2019-02-16T16:17:03.314Z,93.20
2019-02-16T16:19:57.722Z,94.80
2019-02-16T16:23:04.160Z,95.90
2019-02-16T16:25:43.069Z,98.00
2019-02-16T16:28:26.808Z,99.90
2019-02-16T16:31:08.761Z,99.90
2019-02-16T16:34:00.638Z,99.90
2019-02-16T16:36:50.274Z,99.90
2019-02-16T16:39:57.946Z,99.90
2019-02-16T16:42:47.354Z,99.90
2019-02-16T16:45:37.039Z,99.90
2019-02-16T16:48:38.635Z,99.90
2019-02-16T16:51:31.109Z,99.90
2019-02-16T16:54:16.708Z,99.90
2019-02-16T16:57:04.581Z,99.90
2019-02-16T16:59:52.833Z,99.90
2019-02-16T17:02:36.064Z,99.90
2019-02-16T17:05:28.408Z,99.90
2019-02-16T17:08:26.713Z,99.90
2019-02-16T17:11:19.120Z,99.90
2019-02-16T17:14:07.358Z,99.90
2019-02-16T17:16:55.914Z,99.90
2019-02-16T17:19:39.335Z,99.90
2019-02-16T17:22:20.778Z,99.90
2019-02-16T17:25:16.438Z,99.90
2019-02-16T17:27:59.037Z,99.90
2019-02-16T17:30:44.586Z,99.90
2019-02-16T17:33:34.059Z,99.90
2019-02-16T17:36:26.794Z,99.90
2019-02-16T17:39:18.631Z,99.90
2019-02-16T17:41:59.775Z,99.90
2019-02-16T17:45:08.102Z,99.90
2019-02-16T17:48:00.714Z,99.90
2019-02-16T17:50:54.066Z,99.90
2019-02-16T17:53:49.659Z,99.90
2019-02-16T17:56:46.656Z,99.90
2019-02-16T17:59:16.747Z,99.90
2019-02-16T18:02:09.299Z,99.90
2019-02-16T18:04:58.721Z,99.90
2019-02-16T18:07:48.361Z,99.90
2019-02-16T18:10:37.928Z,99.90
2019-02-16T18:13:26.289Z,99.90
2019-02-16T18:16:13.784Z,99.90
2019-02-16T18:18:50.089Z,99.90
2019-02-16T18:21:35.173Z,99.90
2019-02-16T18:24:39.655Z,99.90
2019-02-16T18:27:38.514Z,99.90
2019-02-16T18:30:26.454Z,99.90
2019-02-16T18:33:15.220Z,99.90
2019-02-16T18:35:58.990Z,99.90
2019-02-16T18:38:47.571Z,99.90
2019-02-16T18:41:52.075Z,99.90
2019-02-16T18:44:48.127Z,99.90
2019-02-16T18:47:40.924Z,99.90
2019-02-16T18:50:33.172Z,99.90
2019-02-16T18:53:23.842Z,99.90
2019-02-16T18:56:28.984Z,99.90
2019-02-16T18:59:19.759Z,99.90
2019-02-16T19:02:09.262Z,99.90
2019-02-16T19:04:56.475Z,99.90
2019-02-16T19:07:55.115Z,99.90
2019-02-16T19:10:32.484Z,99.90
2019-02-16T19:13:31.207Z,99.90
2019-02-16T19:16:19.370Z,99.90
2019-02-16T19:19:28.332Z,99.90
2019-02-16T19:22:40.535Z,99.90
2019-02-16T19:25:17.975Z,99.90
2019-02-16T19:28:06.105Z,99.90
2019-02-16T19:31:04.449Z,99.90
2019-02-16T19:33:59.624Z,99.90
2019-02-16T19:36:44.941Z,99.90
2019-02-16T19:39:37.275Z,99.90
2019-02-16T19:42:34.179Z,99.90
2019-02-16T19:45:42.629Z,99.90
2019-02-16T19:48:38.771Z,99.90
2019-02-16T19:51:36.810Z,99.90
2019-02-16T19:54:29.126Z,99.90
2019-02-16T19:57:27.998Z,99.90
2019-02-16T20:00:16.630Z,99.90
2019-02-16T20:03:05.231Z,99.90
2019-02-16T20:05:56.193Z,99.90
2019-02-16T20:09:05.691Z,99.90
2019-02-16T20:12:03.314Z,99.90
2019-02-16T20:15:08.669Z,99.90
2019-02-16T20:18:00.457Z,99.90
2019-02-16T20:20:45.392Z,99.90
2019-02-16T20:23:42.697Z,99.90
2019-02-16T20:26:29.110Z,99.90
2019-02-16T20:32:49.880Z,99.90
2019-02-16T20:35:46.234Z,99.90
2019-02-16T20:38:25.434Z,99.90
2019-02-16T20:41:09.984Z,99.90
2019-02-16T20:44:02.969Z,99.90
2019-02-16T20:46:56.932Z,99.90
2019-02-16T20:49:38.385Z,99.90
2019-02-16T20:52:26.699Z,99.90
2019-02-16T20:55:05.670Z,99.90
2019-02-16T20:57:48.356Z,99.90
2019-02-16T21:00:31.136Z,99.90
2019-02-16T21:03:19.369Z,99.90
2019-02-16T21:06:11.648Z,99.90
2019-02-16T21:09:20.474Z,99.90
2019-02-16T21:11:56.071Z,99.90
2019-02-16T21:14:53.715Z,99.90
2019-02-16T21:17:48.970Z,99.90
2019-02-16T21:20:32.325Z,99.90
2019-02-16T21:23:20.641Z,99.90
2019-02-16T21:26:01.080Z,99.90
2019-02-16T21:28:41.558Z,99.90
2019-02-16T21:31:31.181Z,99.90
2019-02-16T21:34:23.524Z,99.90
2019-02-16T21:37:20.116Z,99.90
2019-02-16T21:39:55.747Z,99.90
2019-02-16T21:42:46.307Z,99.90
2019-02-16T21:45:33.089Z,99.90
2019-02-16T21:48:25.527Z,99.90
2019-02-16T21:51:13.442Z,99.90
2019-02-16T21:54:08.920Z,99.90
2019-02-16T21:56:55.585Z,99.90
2019-02-16T21:59:55.043Z,99.90
2019-02-16T22:02:48.011Z,99.90
2019-02-16T22:05:37.292Z,99.90
2019-02-16T22:08:31.810Z,99.90
2019-02-16T22:11:11.311Z,99.90
2019-02-16T22:13:42.088Z,99.90
2019-02-16T22:16:12.632Z,99.90
2019-02-16T22:18:43.229Z,99.90
2019-02-16T22:21:13.773Z,99.90
2019-02-16T22:23:44.271Z,99.90
2019-02-16T22:26:14.873Z,99.90
2019-02-16T22:28:45.479Z,99.90
2019-02-16T22:31:17.803Z,99.90
2019-02-16T22:33:48.545Z,99.90
2019-02-16T22:36:19.089Z,99.90
2019-02-16T22:38:49.706Z,99.90
2019-02-16T22:41:20.165Z,99.90
2019-02-16T22:43:50.546Z,99.90
2019-02-16T22:46:21.680Z,99.90
2019-02-16T22:48:52.458Z,99.90
2019-02-16T22:51:23.121Z,99.90
2019-02-16T22:53:53.628Z,99.90
2019-02-16T22:56:24.072Z,99.90
2019-02-16T22:58:54.641Z,99.90
2019-02-16T23:01:25.311Z,99.90
2019-02-16T23:03:55.806Z,99.90
2019-02-16T23:06:27.646Z,99.90
2019-02-16T23:08:58.329Z,99.90
2019-02-16T23:11:29.005Z,99.90
2019-02-16T23:13:59.502Z,99.90
2019-02-16T23:16:30.408Z,99.90
2019-02-16T23:19:01.077Z,99.90
2019-02-16T23:21:31.741Z,99.90
2019-02-16T23:24:03.406Z,99.90
2019-02-16T23:26:33.987Z,99.90
2019-02-16T23:29:04.527Z,99.90
2019-02-16T23:31:35.470Z,99.90
2019-02-16T23:34:06.129Z,99.90
2019-02-16T23:36:36.587Z,99.90
2019-02-16T23:39:08.810Z,99.90
2019-02-16T23:41:40.559Z,99.90
2019-02-16T23:44:11.055Z,99.90
2019-02-16T23:46:42.062Z,99.90
2019-02-16T23:49:12.731Z,99.90
2019-02-16T23:51:43.372Z,99.90
2019-02-16T23:54:13.771Z,99.90
2019-02-16T23:56:44.572Z,99.90
2019-02-16T23:59:15.146Z,99.90
